createdAt,value
2024-02-07T00:02:52.022Z,70.40
2024-02-07T00:07:54.132Z,69.70
2024-02-07T00:12:56.276Z,70.60
2024-02-07T00:17:59.978Z,70.50
2024-02-07T00:23:02.999Z,70.60
2024-02-07T00:28:07.286Z,69.90
2024-02-07T00:33:09.378Z,70.60
2024-02-07T00:38:11.412Z,70.60
2024-02-07T00:43:16.397Z,70.50
2024-02-07T00:48:18.531Z,70.60
2024-02-07T00:53:21.035Z,70.60
2024-02-07T00:58:23.740Z,70.50
2024-02-07T01:03:26.035Z,70.50
2024-02-07T01:08:28.167Z,70.60
2024-02-07T01:13:30.258Z,70.50
2024-02-07T01:18:32.351Z,70.40
2024-02-07T01:23:34.397Z,70.50
2024-02-07T01:28:36.526Z,70.50
2024-02-07T01:33:39.376Z,70.50
2024-02-07T01:38:41.853Z,70.50
2024-02-07T01:43:44.062Z,70.30
2024-02-07T01:48:46.882Z,70.30
2024-02-07T01:53:49.850Z,70.30
2024-02-07T01:58:52.061Z,70.30
2024-02-07T02:03:56.236Z,69.60
2024-02-07T02:08:59.401Z,70.40
2024-02-07T02:14:01.630Z,70.30
2024-02-07T02:19:03.993Z,70.20
2024-02-07T02:24:57.506Z,70.30
2024-02-07T02:30:02.955Z,70.30
2024-02-07T02:35:07.697Z,70.30
2024-02-07T02:40:10.350Z,70.20
2024-02-07T02:45:12.457Z,70.20
2024-02-07T02:50:15.511Z,70.30
2024-02-07T02:55:17.710Z,70.20
2024-02-07T03:00:22.034Z,70.30
2024-02-07T03:05:43.925Z,70.30
2024-02-07T03:10:46.512Z,70.30
2024-02-07T03:15:48.483Z,70.30
2024-02-07T03:20:53.453Z,70.30
2024-02-07T03:25:55.549Z,70.40
2024-02-07T03:30:57.933Z,70.30
2024-02-07T03:36:00.105Z,70.40
2024-02-07T03:41:02.193Z,70.30
2024-02-07T03:46:07.866Z,69.50
2024-02-07T03:51:11.035Z,70.30
2024-02-07T03:56:13.200Z,70.30
2024-02-07T04:01:19.394Z,70.30
2024-02-07T04:06:21.696Z,70.40
2024-02-07T04:11:25.171Z,70.50
2024-02-07T04:16:45.710Z,70.50
2024-02-07T04:22:06.195Z,69.70
2024-02-07T04:27:26.904Z,70.50
2024-02-07T04:32:47.996Z,70.50
2024-02-07T04:38:08.392Z,70.50
2024-02-07T04:43:29.145Z,70.50
2024-02-07T04:48:49.821Z,70.50
2024-02-07T04:54:12.346Z,70.50
2024-02-07T04:59:33.423Z,69.50
2024-02-07T05:04:54.325Z,70.50
2024-02-07T05:10:15.711Z,70.40
2024-02-07T05:15:17.706Z,69.70
2024-02-07T05:20:19.937Z,70.50
2024-02-07T05:25:23.451Z,70.50
2024-02-07T05:30:25.477Z,70.50
2024-02-07T05:35:27.620Z,70.40
2024-02-07T05:40:29.866Z,70.30
2024-02-07T05:45:32.273Z,70.20
2024-02-07T05:50:36.346Z,69.60
2024-02-07T05:55:38.472Z,70.20
2024-02-07T06:00:42.088Z,70.20
2024-02-07T06:05:44.880Z,70.20
2024-02-07T06:10:47.079Z,70.10
2024-02-07T06:15:49.146Z,69.40
2024-02-07T06:20:51.340Z,70.20
2024-02-07T06:25:53.700Z,69.90
2024-02-07T06:30:56.260Z,69.90
2024-02-07T06:35:58.338Z,69.90
2024-02-07T06:41:00.411Z,69.70
2024-02-07T06:46:05.530Z,69.80
2024-02-07T06:51:07.519Z,69.70
2024-02-07T06:56:09.989Z,69.80
2024-02-07T07:01:12.199Z,69.70
2024-02-07T07:06:14.298Z,68.90
2024-02-07T07:11:17.232Z,69.60
2024-02-07T07:16:21.755Z,69.40
2024-02-07T07:21:23.761Z,69.50
2024-02-07T07:26:25.778Z,69.40
2024-02-07T07:31:28.579Z,69.30
2024-02-07T07:36:39.213Z,69.40
2024-02-07T07:41:41.954Z,69.30
2024-02-07T07:46:47.189Z,68.90
2024-02-07T07:51:50.822Z,69.30
2024-02-07T07:56:52.878Z,69.30
2024-02-07T08:01:59.738Z,69.20
2024-02-07T08:07:01.880Z,69.30
2024-02-07T08:12:03.971Z,69.30
2024-02-07T08:17:06.057Z,69.30
2024-02-07T08:22:07.964Z,69.20
2024-02-07T08:27:09.781Z,69.10
2024-02-07T08:32:11.794Z,69.00
2024-02-07T08:37:13.625Z,69.00
2024-02-07T08:42:15.467Z,69.10
2024-02-07T08:47:17.370Z,69.20
2024-02-07T08:52:19.294Z,69.00
2024-02-07T08:57:21.240Z,69.10
2024-02-07T09:02:23.232Z,69.00
2024-02-07T09:07:25.221Z,68.80
2024-02-07T09:12:28.566Z,68.90
2024-02-07T09:17:33.151Z,68.80
2024-02-07T09:22:35.370Z,68.80
2024-02-07T09:27:37.433Z,68.70
2024-02-07T09:32:43.041Z,68.60
2024-02-07T09:37:45.292Z,68.60
2024-02-07T09:42:49.279Z,69.40
2024-02-07T09:48:03.477Z,68.70
2024-02-07T09:53:07.134Z,68.60
2024-02-07T09:58:12.832Z,68.60
2024-02-07T10:03:16.280Z,68.50
2024-02-07T10:08:18.940Z,68.40
2024-02-07T10:13:21.931Z,68.50
2024-02-07T10:18:24.731Z,68.50
2024-02-07T10:23:26.772Z,68.40
2024-02-07T10:28:29.367Z,68.40
2024-02-07T10:33:41.945Z,68.20
2024-02-07T10:38:44.940Z,68.40
2024-02-07T10:43:46.995Z,68.20
2024-02-07T10:48:49.886Z,67.40
2024-02-07T10:53:52.146Z,68.20
2024-02-07T10:58:55.961Z,67.30
2024-02-07T11:03:59.525Z,68.10
2024-02-07T11:09:01.920Z,68.20
2024-02-07T11:14:05.152Z,68.10
2024-02-07T11:19:07.991Z,68.10
2024-02-07T11:24:11.042Z,68.10
2024-02-07T11:29:13.361Z,68.10
2024-02-07T11:34:16.486Z,68.00
2024-02-07T11:39:18.612Z,68.90
2024-02-07T11:44:23.514Z,68.00
2024-02-07T11:49:32.145Z,68.00
2024-02-07T11:54:38.507Z,68.00
2024-02-07T11:59:40.604Z,68.00
2024-02-07T12:04:42.928Z,68.00
2024-02-07T12:09:45.227Z,68.80
2024-02-07T12:14:49.135Z,67.90
2024-02-07T12:19:51.424Z,67.70
2024-02-07T12:24:53.488Z,67.90
2024-02-07T12:29:57.315Z,67.90
2024-02-07T12:35:00.879Z,68.00
2024-02-07T12:40:03.409Z,67.90
2024-02-07T12:45:07.025Z,67.90
2024-02-07T12:50:10.302Z,67.80
2024-02-07T12:55:13.001Z,67.80
2024-02-07T13:00:15.578Z,67.70
2024-02-07T13:05:18.094Z,67.80
2024-02-07T13:10:20.478Z,67.80
2024-02-07T13:15:22.356Z,67.70
2024-02-07T13:20:24.917Z,67.80
2024-02-07T13:25:27.237Z,67.70
2024-02-07T13:30:29.163Z,67.10
2024-02-07T13:35:31.238Z,67.80
2024-02-07T13:40:33.369Z,67.60
2024-02-07T13:45:35.367Z,67.60
2024-02-07T13:50:37.315Z,67.60
2024-02-07T13:55:39.299Z,67.50
2024-02-07T14:00:41.856Z,68.80
2024-02-07T14:05:43.859Z,68.10
2024-02-07T14:10:49.348Z,67.90
2024-02-07T14:15:52.202Z,67.80
2024-02-07T14:20:54.185Z,67.40
2024-02-07T14:25:56.903Z,68.20
2024-02-07T14:30:58.880Z,68.10
2024-02-07T14:36:00.894Z,67.40
2024-02-07T14:41:03.381Z,67.20
2024-02-07T14:46:05.316Z,67.10
2024-02-07T14:51:07.630Z,67.10
2024-02-07T14:56:10.082Z,66.90
2024-02-07T15:01:14.012Z,67.00
2024-02-07T15:06:16.042Z,66.70
2024-02-07T15:11:18.001Z,66.70
2024-02-07T15:16:19.980Z,66.20
2024-02-07T15:21:22.069Z,66.20
2024-02-07T15:26:24.037Z,65.60
2024-02-07T15:31:26.046Z,66.80
2024-02-07T15:36:28.175Z,66.60
2024-02-07T15:41:30.079Z,66.80
2024-02-07T15:46:32.060Z,66.80
2024-02-07T15:51:34.007Z,65.90
2024-02-07T15:56:36.722Z,66.60
2024-02-07T16:01:46.476Z,66.60
2024-02-07T16:06:57.282Z,66.60
2024-02-07T16:11:59.666Z,66.20
2024-02-07T16:17:01.821Z,67.80
2024-02-07T16:22:04.058Z,68.30
2024-02-07T16:27:06.170Z,68.50
2024-02-07T16:32:08.171Z,67.90
2024-02-07T16:37:10.713Z,68.00
2024-02-07T16:42:12.779Z,67.90
2024-02-07T16:47:14.767Z,68.20
2024-02-07T16:52:23.782Z,67.70
2024-02-07T16:57:26.201Z,67.50
2024-02-07T17:02:28.436Z,67.20
2024-02-07T17:07:30.531Z,67.10
2024-02-07T17:12:32.515Z,66.70
2024-02-07T17:17:34.902Z,67.00
2024-02-07T17:22:37.305Z,66.90
2024-02-07T17:27:39.613Z,66.90
2024-02-07T17:32:42.859Z,66.60
2024-02-07T17:37:44.921Z,66.60
2024-02-07T17:42:47.153Z,66.50
2024-02-07T17:47:49.336Z,65.80
2024-02-07T17:52:51.495Z,66.90
2024-02-07T17:57:53.580Z,66.50
2024-02-07T18:02:55.605Z,66.50
2024-02-07T18:07:57.961Z,65.90
2024-02-07T18:13:00.391Z,65.60
2024-02-07T18:18:05.057Z,65.60
2024-02-07T18:23:07.111Z,66.20
2024-02-07T18:28:09.150Z,65.30
2024-02-07T18:33:11.355Z,65.80
2024-02-07T18:38:13.403Z,65.90
2024-02-07T18:43:15.376Z,65.80
2024-02-07T18:48:17.441Z,65.80
2024-02-07T18:53:21.129Z,65.70
2024-02-07T18:58:28.964Z,65.60
2024-02-07T19:03:31.066Z,65.60
2024-02-07T19:08:33.088Z,65.50
2024-02-07T19:13:35.149Z,65.40
2024-02-07T19:18:37.170Z,65.40
2024-02-07T19:23:39.072Z,65.40
2024-02-07T19:28:41.769Z,65.90
2024-02-07T19:33:43.920Z,65.80
2024-02-07T19:38:46.288Z,65.80
2024-02-07T19:43:48.393Z,65.90
2024-02-07T19:48:50.648Z,65.80
2024-02-07T19:53:53.028Z,65.60
2024-02-07T19:58:55.329Z,65.60
2024-02-07T20:03:57.414Z,65.50
2024-02-07T20:08:59.440Z,66.30
2024-02-07T20:14:01.582Z,65.50
2024-02-07T20:19:03.648Z,65.50
2024-02-07T20:24:06.378Z,65.40
2024-02-07T20:29:08.373Z,65.50
2024-02-07T20:34:10.301Z,65.60
2024-02-07T20:39:12.384Z,65.50
2024-02-07T20:44:17.533Z,65.50
2024-02-07T20:49:19.829Z,65.50
2024-02-07T20:54:21.932Z,65.50
2024-02-07T20:59:26.833Z,64.70
2024-02-07T21:04:29.697Z,65.50
2024-02-07T21:09:31.943Z,65.50
2024-02-07T21:14:36.158Z,64.70
2024-02-07T21:19:38.240Z,65.40
2024-02-07T21:24:47.249Z,62.80
2024-02-07T21:29:50.167Z,65.30
2024-02-07T21:34:52.232Z,65.40
2024-02-07T21:39:54.232Z,64.60
2024-02-07T21:44:56.363Z,65.30
2024-02-07T21:49:58.389Z,65.30
2024-02-07T21:55:01.094Z,65.20
2024-02-07T22:00:03.219Z,65.30
2024-02-07T22:05:09.841Z,65.20
2024-02-07T22:10:11.834Z,65.20
2024-02-07T22:15:13.886Z,64.30
2024-02-07T22:20:15.945Z,65.10
2024-02-07T22:25:17.884Z,65.20
2024-02-07T22:30:19.835Z,65.00
2024-02-07T22:35:21.987Z,65.00
2024-02-07T22:40:24.069Z,64.90
2024-02-07T22:45:26.777Z,65.00
2024-02-07T22:50:30.049Z,65.00
2024-02-07T22:55:32.426Z,64.90
2024-02-07T23:00:37.367Z,64.00
2024-02-07T23:05:41.019Z,64.90
2024-02-07T23:10:46.170Z,64.90
2024-02-07T23:15:48.207Z,64.80
2024-02-07T23:20:50.213Z,64.70
2024-02-07T23:25:52.209Z,64.70
2024-02-07T23:30:54.510Z,64.00
2024-02-07T23:35:59.002Z,64.70
2024-02-07T23:41:01.008Z,64.70
2024-02-07T23:46:03.473Z,64.60
2024-02-07T23:51:07.271Z,64.60
2024-02-07T23:56:09.157Z,64.60
